sensor_id;sensor_type;location;lat;lon;timestamp;P1;durP1;ratioP1;P2;durP2;ratioP2
72645;SDS011;60687;53.876;10.674;2023-08-17T00:05:00;6.27;;;1.40;;
72645;SDS011;60687;53.876;10.674;2023-08-17T00:15:05;4.88;;;1.08;;
72645;SDS011;60687;53.876;10.674;2023-08-17T00:25:08;5.93;;;1.40;;
72645;SDS011;60687;53.876;10.674;2023-08-17T00:35:12;6.13;;;1.50;;
72645;SDS011;60687;53.876;10.674;2023-08-17T00:45:14;4.85;;;1.42;;
72645;SDS011;60687;53.876;10.674;2023-08-17T00:55:19;4.83;;;1.40;;
72645;SDS011;60687;53.876;10.674;2023-08-17T01:05:23;5.30;;;1.60;;
72645;SDS011;60687;53.876;10.674;2023-08-17T01:15:27;6.10;;;1.33;;
72645;SDS011;60687;53.876;10.674;2023-08-17T01:25:38;5.97;;;1.52;;
72645;SDS011;60687;53.876;10.674;2023-08-17T01:35:44;7.20;;;1.53;;
72645;SDS011;60687;53.876;10.674;2023-08-17T01:45:54;5.77;;;1.40;;
72645;SDS011;60687;53.876;10.674;2023-08-17T01:55:57;4.18;;;1.13;;
72645;SDS011;60687;53.876;10.674;2023-08-17T02:06:01;5.00;;;1.43;;
72645;SDS011;60687;53.876;10.674;2023-08-17T02:16:03;4.80;;;1.40;;
72645;SDS011;60687;53.876;10.674;2023-08-17T02:26:07;4.15;;;1.00;;
72645;SDS011;60687;53.876;10.674;2023-08-17T02:36:10;5.47;;;1.03;;
72645;SDS011;60687;53.876;10.674;2023-08-17T02:46:14;5.83;;;1.50;;
72645;SDS011;60687;53.876;10.674;2023-08-17T02:56:18;5.50;;;1.50;;
72645;SDS011;60687;53.876;10.674;2023-08-17T03:06:23;4.60;;;1.35;;
72645;SDS011;60687;53.876;10.674;2023-08-17T03:16:26;4.90;;;1.37;;
72645;SDS011;60687;53.876;10.674;2023-08-17T03:26:32;4.40;;;1.30;;
72645;SDS011;60687;53.876;10.674;2023-08-17T03:36:35;6.20;;;1.45;;
72645;SDS011;60687;53.876;10.674;2023-08-17T03:46:39;6.87;;;1.70;;
72645;SDS011;60687;53.876;10.674;2023-08-17T03:56:41;8.07;;;2.23;;
72645;SDS011;60687;53.876;10.674;2023-08-17T04:06:45;6.43;;;1.60;;
72645;SDS011;60687;53.876;10.674;2023-08-17T04:16:47;6.77;;;1.77;;
72645;SDS011;60687;53.876;10.674;2023-08-17T04:26:52;6.53;;;1.77;;
72645;SDS011;60687;53.876;10.674;2023-08-17T04:36:54;7.53;;;1.67;;
72645;SDS011;60687;53.876;10.674;2023-08-17T04:46:58;6.68;;;1.88;;
72645;SDS011;60687;53.876;10.674;2023-08-17T04:57:01;7.10;;;1.97;;
72645;SDS011;60687;53.876;10.674;2023-08-17T05:07:07;7.00;;;2.00;;
72645;SDS011;60687;53.876;10.674;2023-08-17T05:17:09;6.28;;;1.40;;
72645;SDS011;60687;53.876;10.674;2023-08-17T05:27:13;8.63;;;1.90;;
72645;SDS011;60687;53.876;10.674;2023-08-17T05:37:16;9.40;;;2.00;;
72645;SDS011;60687;53.876;10.674;2023-08-17T05:47:19;8.32;;;2.00;;
72645;SDS011;60687;53.876;10.674;2023-08-17T05:57:22;8.13;;;2.00;;
72645;SDS011;60687;53.876;10.674;2023-08-17T06:07:25;7.87;;;2.10;;
72645;SDS011;60687;53.876;10.674;2023-08-17T06:17:29;8.30;;;1.65;;
72645;SDS011;60687;53.876;10.674;2023-08-17T06:27:32;5.82;;;1.27;;
72645;SDS011;60687;53.876;10.674;2023-08-17T06:37:35;5.70;;;1.60;;
72645;SDS011;60687;53.876;10.674;2023-08-17T06:47:39;6.80;;;1.93;;
72645;SDS011;60687;53.876;10.674;2023-08-17T06:57:41;5.60;;;1.50;;
72645;SDS011;60687;53.876;10.674;2023-08-17T07:07:45;7.70;;;2.13;;
72645;SDS011;60687;53.876;10.674;2023-08-17T07:17:48;6.43;;;1.90;;
72645;SDS011;60687;53.876;10.674;2023-08-17T07:27:51;7.93;;;2.30;;
72645;SDS011;60687;53.876;10.674;2023-08-17T07:37:54;6.77;;;1.60;;
72645;SDS011;60687;53.876;10.674;2023-08-17T07:47:58;7.57;;;1.47;;
72645;SDS011;60687;53.876;10.674;2023-08-17T07:58:00;6.60;;;1.70;;
72645;SDS011;60687;53.876;10.674;2023-08-17T08:08:05;7.07;;;2.00;;
72645;SDS011;60687;53.876;10.674;2023-08-17T08:18:07;6.50;;;2.00;;
72645;SDS011;60687;53.876;10.674;2023-08-17T08:28:12;6.27;;;1.90;;
72645;SDS011;60687;53.876;10.674;2023-08-17T08:38:14;5.82;;;1.70;;
72645;SDS011;60687;53.876;10.674;2023-08-17T08:48:19;9.30;;;2.43;;
72645;SDS011;60687;53.876;10.674;2023-08-17T08:58:24;7.93;;;2.30;;
72645;SDS011;60687;53.876;10.674;2023-08-17T09:08:31;8.85;;;2.42;;
72645;SDS011;60687;53.876;10.674;2023-08-17T09:18:34;7.33;;;2.77;;
72645;SDS011;60687;53.876;10.674;2023-08-17T09:28:39;7.77;;;2.60;;
72645;SDS011;60687;53.876;10.674;2023-08-17T09:38:42;6.30;;;2.28;;
72645;SDS011;60687;53.876;10.674;2023-08-17T09:48:48;8.00;;;2.60;;
72645;SDS011;60687;53.876;10.674;2023-08-17T09:58:51;5.90;;;1.80;;
72645;SDS011;60687;53.876;10.674;2023-08-17T10:08:55;6.43;;;1.83;;
72645;SDS011;60687;53.876;10.674;2023-08-17T10:19:04;6.13;;;1.60;;
72645;SDS011;60687;53.876;10.674;2023-08-17T10:29:15;6.23;;;2.00;;
72645;SDS011;60687;53.876;10.674;2023-08-17T10:39:22;6.83;;;1.63;;
72645;SDS011;60687;53.876;10.674;2023-08-17T10:49:27;5.50;;;1.48;;
72645;SDS011;60687;53.876;10.674;2023-08-17T10:59:29;6.07;;;1.57;;
72645;SDS011;60687;53.876;10.674;2023-08-17T11:09:36;8.87;;;2.57;;
72645;SDS011;60687;53.876;10.674;2023-08-17T11:19:39;7.68;;;2.38;;
72645;SDS011;60687;53.876;10.674;2023-08-17T11:29:43;7.97;;;2.50;;
72645;SDS011;60687;53.876;10.674;2023-08-17T11:39:46;7.70;;;2.47;;
72645;SDS011;60687;53.876;10.674;2023-08-17T11:49:50;6.27;;;2.20;;
72645;SDS011;60687;53.876;10.674;2023-08-17T11:59:53;9.77;;;2.60;;
72645;SDS011;60687;53.876;10.674;2023-08-17T12:10:01;6.90;;;2.60;;
72645;SDS011;60687;53.876;10.674;2023-08-17T12:20:06;6.80;;;2.00;;
72645;SDS011;60687;53.876;10.674;2023-08-17T12:30:16;6.68;;;1.77;;
72645;SDS011;60687;53.876;10.674;2023-08-17T12:40:26;6.67;;;1.77;;
72645;SDS011;60687;53.876;10.674;2023-08-17T12:50:30;7.13;;;1.93;;
72645;SDS011;60687;53.876;10.674;2023-08-17T13:00:33;6.93;;;1.98;;
72645;SDS011;60687;53.876;10.674;2023-08-17T13:10:37;8.48;;;2.20;;
72645;SDS011;60687;53.876;10.674;2023-08-17T13:20:39;7.73;;;2.00;;
72645;SDS011;60687;53.876;10.674;2023-08-17T13:30:43;7.57;;;2.10;;
72645;SDS011;60687;53.876;10.674;2023-08-17T13:40:45;7.55;;;2.65;;
72645;SDS011;60687;53.876;10.674;2023-08-17T13:50:52;6.50;;;2.10;;
72645;SDS011;60687;53.876;10.674;2023-08-17T14:00:54;6.20;;;1.90;;
72645;SDS011;60687;53.876;10.674;2023-08-17T14:10:58;6.28;;;2.25;;
72645;SDS011;60687;53.876;10.674;2023-08-17T14:21:01;7.70;;;2.37;;
72645;SDS011;60687;53.876;10.674;2023-08-17T14:31:05;6.73;;;1.80;;
72645;SDS011;60687;53.876;10.674;2023-08-17T14:41:07;5.30;;;1.83;;
72645;SDS011;60687;53.876;10.674;2023-08-17T14:51:11;5.70;;;1.63;;
72645;SDS011;60687;53.876;10.674;2023-08-17T15:01:14;6.10;;;1.53;;
72645;SDS011;60687;53.876;10.674;2023-08-17T15:11:17;4.80;;;1.37;;
72645;SDS011;60687;53.876;10.674;2023-08-17T15:21:20;6.20;;;1.70;;
72645;SDS011;60687;53.876;10.674;2023-08-17T15:31:24;7.03;;;2.07;;
72645;SDS011;60687;53.876;10.674;2023-08-17T15:41:30;5.07;;;1.70;;
72645;SDS011;60687;53.876;10.674;2023-08-17T15:51:33;6.82;;;2.33;;
72645;SDS011;60687;53.876;10.674;2023-08-17T16:01:45;5.80;;;1.80;;
72645;SDS011;60687;53.876;10.674;2023-08-17T16:11:49;5.27;;;2.00;;
72645;SDS011;60687;53.876;10.674;2023-08-17T16:21:51;6.57;;;2.42;;
72645;SDS011;60687;53.876;10.674;2023-08-17T16:32:02;7.20;;;2.30;;
72645;SDS011;60687;53.876;10.674;2023-08-17T16:42:05;6.47;;;2.43;;
72645;SDS011;60687;53.876;10.674;2023-08-17T16:52:09;7.07;;;2.43;;
72645;SDS011;60687;53.876;10.674;2023-08-17T17:02:12;6.50;;;2.67;;
72645;SDS011;60687;53.876;10.674;2023-08-17T17:12:16;7.37;;;2.17;;
72645;SDS011;60687;53.876;10.674;2023-08-17T17:22:19;7.40;;;3.07;;
72645;SDS011;60687;53.876;10.674;2023-08-17T17:32:24;7.68;;;2.67;;
72645;SDS011;60687;53.876;10.674;2023-08-17T17:42:27;6.97;;;2.67;;
72645;SDS011;60687;53.876;10.674;2023-08-17T17:52:31;5.97;;;2.50;;
72645;SDS011;60687;53.876;10.674;2023-08-17T18:02:34;7.15;;;2.50;;
72645;SDS011;60687;53.876;10.674;2023-08-17T18:12:37;5.80;;;1.70;;
72645;SDS011;60687;53.876;10.674;2023-08-17T18:22:41;5.83;;;1.93;;
72645;SDS011;60687;53.876;10.674;2023-08-17T18:32:45;5.80;;;1.73;;
72645;SDS011;60687;53.876;10.674;2023-08-17T18:42:48;5.10;;;1.42;;
72645;SDS011;60687;53.876;10.674;2023-08-17T18:52:52;5.97;;;1.60;;
72645;SDS011;60687;53.876;10.674;2023-08-17T19:02:55;6.40;;;1.63;;
72645;SDS011;60687;53.876;10.674;2023-08-17T19:12:59;6.28;;;1.40;;
72645;SDS011;60687;53.876;10.674;2023-08-17T19:23:03;7.63;;;1.97;;
72645;SDS011;60687;53.876;10.674;2023-08-17T19:33:07;7.83;;;1.80;;
72645;SDS011;60687;53.876;10.674;2023-08-17T19:43:10;4.78;;;1.30;;
72645;SDS011;60687;53.876;10.674;2023-08-17T19:53:14;5.43;;;1.70;;
72645;SDS011;60687;53.876;10.674;2023-08-17T20:03:16;7.10;;;1.90;;
72645;SDS011;60687;53.876;10.674;2023-08-17T20:13:20;7.20;;;1.80;;
72645;SDS011;60687;53.876;10.674;2023-08-17T20:23:23;5.65;;;1.58;;
72645;SDS011;60687;53.876;10.674;2023-08-17T20:33:27;5.83;;;1.67;;
72645;SDS011;60687;53.876;10.674;2023-08-17T20:43:29;5.93;;;1.50;;
72645;SDS011;60687;53.876;10.674;2023-08-17T20:53:33;6.13;;;1.45;;
72645;SDS011;60687;53.876;10.674;2023-08-17T21:03:36;5.03;;;1.47;;
72645;SDS011;60687;53.876;10.674;2023-08-17T21:13:40;5.47;;;1.60;;
72645;SDS011;60687;53.876;10.674;2023-08-17T21:23:42;6.28;;;1.75;;
72645;SDS011;60687;53.876;10.674;2023-08-17T21:33:46;6.53;;;1.53;;
72645;SDS011;60687;53.876;10.674;2023-08-17T21:43:49;5.67;;;1.50;;
72645;SDS011;60687;53.876;10.674;2023-08-17T21:53:53;8.82;;;2.20;;
72645;SDS011;60687;53.876;10.674;2023-08-17T22:03:58;4.85;;;1.25;;
72645;SDS011;60687;53.876;10.674;2023-08-17T22:14:02;7.67;;;1.93;;
72645;SDS011;60687;53.876;10.674;2023-08-17T22:24:05;5.77;;;1.70;;
72645;SDS011;60687;53.876;10.674;2023-08-17T22:34:12;4.95;;;1.42;;
72645;SDS011;60687;53.876;10.674;2023-08-17T22:44:15;5.43;;;1.50;;
72645;SDS011;60687;53.876;10.674;2023-08-17T22:54:19;5.43;;;1.43;;
72645;SDS011;60687;53.876;10.674;2023-08-17T23:04:22;7.07;;;1.48;;
72645;SDS011;60687;53.876;10.674;2023-08-17T23:14:25;5.20;;;1.50;;
72645;SDS011;60687;53.876;10.674;2023-08-17T23:24:28;4.87;;;1.43;;
72645;SDS011;60687;53.876;10.674;2023-08-17T23:34:32;5.68;;;1.38;;
72645;SDS011;60687;53.876;10.674;2023-08-17T23:44:35;5.47;;;1.50;;
72645;SDS011;60687;53.876;10.674;2023-08-17T23:54:39;6.13;;;1.27;;
